sensor_id;sensor_type;location;lat;lon;timestamp;P1;durP1;ratioP1;P2;durP2;ratioP2
21894;SDS011;11112;51.270;7.224;2023-12-22T00:02:34;7.80;;;1.50;;
21894;SDS011;11112;51.270;7.224;2023-12-22T00:05:32;7.55;;;1.30;;
21894;SDS011;11112;51.270;7.224;2023-12-22T00:08:26;9.52;;;1.85;;
21894;SDS011;11112;51.270;7.224;2023-12-22T00:11:25;9.85;;;1.90;;
21894;SDS011;11112;51.270;7.224;2023-12-22T00:14:17;10.20;;;2.28;;
21894;SDS011;11112;51.270;7.224;2023-12-22T00:17:21;7.95;;;1.80;;
21894;SDS011;11112;51.270;7.224;2023-12-22T00:20:13;9.18;;;1.50;;
21894;SDS011;11112;51.270;7.224;2023-12-22T00:23:10;9.40;;;1.80;;
21894;SDS011;11112;51.270;7.224;2023-12-22T00:26:07;7.53;;;1.48;;
21894;SDS011;11112;51.270;7.224;2023-12-22T00:29:04;7.32;;;1.63;;
21894;SDS011;11112;51.270;7.224;2023-12-22T00:31:45;10.43;;;1.90;;
21894;SDS011;11112;51.270;7.224;2023-12-22T00:34:39;9.02;;;1.80;;
21894;SDS011;11112;51.270;7.224;2023-12-22T00:37:38;10.50;;;1.60;;
21894;SDS011;11112;51.270;7.224;2023-12-22T00:40:26;8.85;;;1.63;;
21894;SDS011;11112;51.270;7.224;2023-12-22T00:43:09;8.75;;;1.70;;
21894;SDS011;11112;51.270;7.224;2023-12-22T00:46:06;8.32;;;1.42;;
21894;SDS011;11112;51.270;7.224;2023-12-22T00:49:05;6.38;;;1.40;;
21894;SDS011;11112;51.270;7.224;2023-12-22T00:51:57;12.50;;;1.90;;
21894;SDS011;11112;51.270;7.224;2023-12-22T00:54:55;11.75;;;1.70;;
21894;SDS011;11112;51.270;7.224;2023-12-22T00:57:46;10.50;;;1.75;;
21894;SDS011;11112;51.270;7.224;2023-12-22T01:00:19;8.60;;;1.58;;
21894;SDS011;11112;51.270;7.224;2023-12-22T01:03:23;10.15;;;1.90;;
21894;SDS011;11112;51.270;7.224;2023-12-22T01:06:01;8.55;;;1.63;;
21894;SDS011;11112;51.270;7.224;2023-12-22T01:08:45;9.68;;;1.60;;
21894;SDS011;11112;51.270;7.224;2023-12-22T01:11:37;9.90;;;1.52;;
21894;SDS011;11112;51.270;7.224;2023-12-22T01:14:40;12.30;;;1.70;;
21894;SDS011;11112;51.270;7.224;2023-12-22T01:17:31;10.40;;;1.87;;
21894;SDS011;11112;51.270;7.224;2023-12-22T01:20:25;8.07;;;1.65;;
21894;SDS011;11112;51.270;7.224;2023-12-22T01:23:23;12.13;;;1.88;;
21894;SDS011;11112;51.270;7.224;2023-12-22T01:26:16;13.40;;;2.10;;
21894;SDS011;11112;51.270;7.224;2023-12-22T01:29:15;8.70;;;2.13;;
21894;SDS011;11112;51.270;7.224;2023-12-22T01:32:07;9.48;;;1.55;;
21894;SDS011;11112;51.270;7.224;2023-12-22T01:35:05;11.23;;;2.00;;
21894;SDS011;11112;51.270;7.224;2023-12-22T01:38:01;7.00;;;1.42;;
21894;SDS011;11112;51.270;7.224;2023-12-22T01:40:54;6.93;;;1.25;;
21894;SDS011;11112;51.270;7.224;2023-12-22T01:43:54;8.45;;;1.60;;
21894;SDS011;11112;51.270;7.224;2023-12-22T01:46:50;7.40;;;0.98;;
21894;SDS011;11112;51.270;7.224;2023-12-22T01:49:50;10.05;;;1.63;;
21894;SDS011;11112;51.270;7.224;2023-12-22T01:52:44;8.20;;;1.40;;
21894;SDS011;11112;51.270;7.224;2023-12-22T01:55:41;6.85;;;1.10;;
21894;SDS011;11112;51.270;7.224;2023-12-22T01:58:33;2.80;;;0.63;;
21894;SDS011;11112;51.270;7.224;2023-12-22T02:01:27;3.30;;;0.60;;
21894;SDS011;11112;51.270;7.224;2023-12-22T02:04:22;4.78;;;0.50;;
21894;SDS011;11112;51.270;7.224;2023-12-22T02:07:16;6.10;;;0.75;;
21894;SDS011;11112;51.270;7.224;2023-12-22T02:10:10;3.88;;;0.77;;
21894;SDS011;11112;51.270;7.224;2023-12-22T02:13:04;7.13;;;0.93;;
21894;SDS011;11112;51.270;7.224;2023-12-22T02:15:42;9.18;;;1.23;;
21894;SDS011;11112;51.270;7.224;2023-12-22T02:18:44;7.65;;;1.08;;
21894;SDS011;11112;51.270;7.224;2023-12-22T02:24:58;5.65;;;0.90;;
21894;SDS011;11112;51.270;7.224;2023-12-22T02:27:50;5.95;;;1.17;;
21894;SDS011;11112;51.270;7.224;2023-12-22T02:30:54;5.25;;;0.90;;
21894;SDS011;11112;51.270;7.224;2023-12-22T02:33:50;4.63;;;0.80;;
21894;SDS011;11112;51.270;7.224;2023-12-22T02:36:53;4.40;;;1.25;;
21894;SDS011;11112;51.270;7.224;2023-12-22T02:39:42;3.72;;;0.70;;
21894;SDS011;11112;51.270;7.224;2023-12-22T02:42:41;7.47;;;1.17;;
21894;SDS011;11112;51.270;7.224;2023-12-22T02:45:36;4.88;;;0.80;;
21894;SDS011;11112;51.270;7.224;2023-12-22T02:48:31;6.63;;;1.17;;
21894;SDS011;11112;51.270;7.224;2023-12-22T02:51:44;11.10;;;1.55;;
21894;SDS011;11112;51.270;7.224;2023-12-22T02:54:36;7.90;;;1.20;;
21894;SDS011;11112;51.270;7.224;2023-12-22T02:57:42;7.63;;;1.20;;
21894;SDS011;11112;51.270;7.224;2023-12-22T03:00:33;8.68;;;1.23;;
21894;SDS011;11112;51.270;7.224;2023-12-22T03:03:29;8.75;;;1.40;;
21894;SDS011;11112;51.270;7.224;2023-12-22T03:06:22;10.93;;;1.58;;
21894;SDS011;11112;51.270;7.224;2023-12-22T03:09:14;6.72;;;1.20;;
21894;SDS011;11112;51.270;7.224;2023-12-22T03:11:59;8.18;;;1.02;;
21894;SDS011;11112;51.270;7.224;2023-12-22T03:14:54;8.32;;;1.23;;
21894;SDS011;11112;51.270;7.224;2023-12-22T03:18:08;4.75;;;0.82;;
21894;SDS011;11112;51.270;7.224;2023-12-22T03:25:24;7.40;;;1.20;;
21894;SDS011;11112;51.270;7.224;2023-12-22T03:29:16;9.10;;;1.58;;
21894;SDS011;11112;51.270;7.224;2023-12-22T03:47:49;13.60;;;1.60;;
21894;SDS011;11112;51.270;7.224;2023-12-22T03:51:10;12.45;;;1.98;;
21894;SDS011;11112;51.270;7.224;2023-12-22T03:54:30;10.93;;;1.70;;
21894;SDS011;11112;51.270;7.224;2023-12-22T04:12:33;9.38;;;1.50;;
21894;SDS011;11112;51.270;7.224;2023-12-22T04:16:45;10.55;;;1.70;;
21894;SDS011;11112;51.270;7.224;2023-12-22T04:19:12;10.85;;;1.55;;
21894;SDS011;11112;51.270;7.224;2023-12-22T04:21:41;10.13;;;1.52;;
21894;SDS011;11112;51.270;7.224;2023-12-22T04:24:08;13.60;;;2.00;;
21894;SDS011;11112;51.270;7.224;2023-12-22T04:26:35;10.93;;;1.95;;
21894;SDS011;11112;51.270;7.224;2023-12-22T04:29:02;11.07;;;1.90;;
21894;SDS011;11112;51.270;7.224;2023-12-22T04:31:30;10.80;;;1.80;;
21894;SDS011;11112;51.270;7.224;2023-12-22T04:33:57;12.27;;;2.10;;
21894;SDS011;11112;51.270;7.224;2023-12-22T04:36:24;10.77;;;1.95;;
21894;SDS011;11112;51.270;7.224;2023-12-22T04:38:52;9.55;;;1.60;;
21894;SDS011;11112;51.270;7.224;2023-12-22T04:41:19;13.75;;;1.90;;
21894;SDS011;11112;51.270;7.224;2023-12-22T04:43:46;10.80;;;1.83;;
21894;SDS011;11112;51.270;7.224;2023-12-22T04:46:13;13.73;;;2.20;;
21894;SDS011;11112;51.270;7.224;2023-12-22T04:48:40;12.43;;;1.88;;
21894;SDS011;11112;51.270;7.224;2023-12-22T04:51:07;10.38;;;1.70;;
21894;SDS011;11112;51.270;7.224;2023-12-22T04:53:34;15.13;;;1.98;;
21894;SDS011;11112;51.270;7.224;2023-12-22T04:56:03;10.98;;;1.83;;
21894;SDS011;11112;51.270;7.224;2023-12-22T04:58:31;11.50;;;1.75;;
21894;SDS011;11112;51.270;7.224;2023-12-22T05:00:58;12.35;;;2.20;;
21894;SDS011;11112;51.270;7.224;2023-12-22T05:03:25;14.75;;;2.20;;
21894;SDS011;11112;51.270;7.224;2023-12-22T05:05:52;12.30;;;2.03;;
21894;SDS011;11112;51.270;7.224;2023-12-22T05:08:19;16.00;;;2.30;;
21894;SDS011;11112;51.270;7.224;2023-12-22T05:10:47;12.63;;;2.25;;
21894;SDS011;11112;51.270;7.224;2023-12-22T05:13:15;11.18;;;2.13;;
21894;SDS011;11112;51.270;7.224;2023-12-22T05:15:43;10.88;;;1.95;;
21894;SDS011;11112;51.270;7.224;2023-12-22T05:18:10;14.77;;;2.60;;
21894;SDS011;11112;51.270;7.224;2023-12-22T05:20:37;12.05;;;2.33;;
21894;SDS011;11112;51.270;7.224;2023-12-22T05:23:05;11.65;;;2.00;;
21894;SDS011;11112;51.270;7.224;2023-12-22T05:25:32;13.90;;;2.45;;
21894;SDS011;11112;51.270;7.224;2023-12-22T05:27:59;11.48;;;2.25;;
21894;SDS011;11112;51.270;7.224;2023-12-22T05:30:28;11.18;;;2.15;;
21894;SDS011;11112;51.270;7.224;2023-12-22T05:32:55;8.52;;;1.90;;
21894;SDS011;11112;51.270;7.224;2023-12-22T05:35:23;9.00;;;1.77;;
21894;SDS011;11112;51.270;7.224;2023-12-22T05:37:50;9.85;;;1.63;;
21894;SDS011;11112;51.270;7.224;2023-12-22T05:40:20;7.85;;;1.27;;
21894;SDS011;11112;51.270;7.224;2023-12-22T05:42:50;6.30;;;1.42;;
21894;SDS011;11112;51.270;7.224;2023-12-22T05:45:17;8.38;;;1.80;;
21894;SDS011;11112;51.270;7.224;2023-12-22T05:48:06;8.57;;;1.63;;
21894;SDS011;11112;51.270;7.224;2023-12-22T05:53:18;5.28;;;1.75;;
21894;SDS011;11112;51.270;7.224;2023-12-22T05:55:45;6.38;;;1.58;;
21894;SDS011;11112;51.270;7.224;2023-12-22T05:58:13;7.97;;;1.80;;
21894;SDS011;11112;51.270;7.224;2023-12-22T06:00:41;6.95;;;1.50;;
21894;SDS011;11112;51.270;7.224;2023-12-22T06:03:10;6.47;;;1.60;;
21894;SDS011;11112;51.270;7.224;2023-12-22T06:05:37;5.93;;;1.27;;
21894;SDS011;11112;51.270;7.224;2023-12-22T06:08:05;5.15;;;1.13;;
21894;SDS011;11112;51.270;7.224;2023-12-22T06:10:32;7.10;;;1.60;;
21894;SDS011;11112;51.270;7.224;2023-12-22T06:12:59;6.80;;;1.10;;
21894;SDS011;11112;51.270;7.224;2023-12-22T06:15:28;4.47;;;0.90;;
21894;SDS011;11112;51.270;7.224;2023-12-22T06:17:56;4.78;;;1.30;;
21894;SDS011;11112;51.270;7.224;2023-12-22T06:20:24;6.03;;;1.05;;
21894;SDS011;11112;51.270;7.224;2023-12-22T06:22:52;5.60;;;1.25;;
21894;SDS011;11112;51.270;7.224;2023-12-22T06:25:19;8.23;;;1.50;;
21894;SDS011;11112;51.270;7.224;2023-12-22T06:27:46;8.07;;;1.50;;
21894;SDS011;11112;51.270;7.224;2023-12-22T06:30:13;7.07;;;1.40;;
21894;SDS011;11112;51.270;7.224;2023-12-22T06:32:41;8.05;;;1.70;;
21894;SDS011;11112;51.270;7.224;2023-12-22T06:35:08;10.25;;;1.85;;
21894;SDS011;11112;51.270;7.224;2023-12-22T06:37:37;9.85;;;1.63;;
21894;SDS011;11112;51.270;7.224;2023-12-22T06:40:04;11.65;;;1.95;;
21894;SDS011;11112;51.270;7.224;2023-12-22T06:42:33;8.57;;;1.55;;
21894;SDS011;11112;51.270;7.224;2023-12-22T06:45:00;10.70;;;2.30;;
21894;SDS011;11112;51.270;7.224;2023-12-22T06:47:27;12.65;;;2.15;;
21894;SDS011;11112;51.270;7.224;2023-12-22T06:49:54;12.20;;;2.55;;
21894;SDS011;11112;51.270;7.224;2023-12-22T06:52:21;10.55;;;2.15;;
21894;SDS011;11112;51.270;7.224;2023-12-22T06:54:49;10.65;;;2.30;;
21894;SDS011;11112;51.270;7.224;2023-12-22T06:57:16;11.40;;;2.40;;
21894;SDS011;11112;51.270;7.224;2023-12-22T06:59:44;12.27;;;2.60;;
21894;SDS011;11112;51.270;7.224;2023-12-22T07:02:13;10.13;;;2.42;;
21894;SDS011;11112;51.270;7.224;2023-12-22T07:04:40;9.68;;;1.90;;
21894;SDS011;11112;51.270;7.224;2023-12-22T07:07:17;13.57;;;2.30;;
21894;SDS011;11112;51.270;7.224;2023-12-22T07:09:45;9.82;;;1.90;;
21894;SDS011;11112;51.270;7.224;2023-12-22T07:12:14;16.67;;;2.33;;
21894;SDS011;11112;51.270;7.224;2023-12-22T07:14:41;22.02;;;7.47;;
21894;SDS011;11112;51.270;7.224;2023-12-22T07:17:08;15.88;;;4.30;;
21894;SDS011;11112;51.270;7.224;2023-12-22T07:19:35;15.80;;;2.70;;
21894;SDS011;11112;51.270;7.224;2023-12-22T07:22:02;12.27;;;2.30;;
21894;SDS011;11112;51.270;7.224;2023-12-22T07:24:30;13.32;;;2.67;;
21894;SDS011;11112;51.270;7.224;2023-12-22T07:26:57;13.60;;;2.20;;
21894;SDS011;11112;51.270;7.224;2023-12-22T07:29:25;12.65;;;2.60;;
21894;SDS011;11112;51.270;7.224;2023-12-22T07:31:52;15.73;;;2.78;;
21894;SDS011;11112;51.270;7.224;2023-12-22T07:34:19;16.30;;;2.67;;
21894;SDS011;11112;51.270;7.224;2023-12-22T07:36:47;14.95;;;2.40;;
21894;SDS011;11112;51.270;7.224;2023-12-22T07:39:14;19.58;;;6.00;;
21894;SDS011;11112;51.270;7.224;2023-12-22T07:41:43;13.35;;;2.55;;
21894;SDS011;11112;51.270;7.224;2023-12-22T07:44:10;14.13;;;2.58;;
21894;SDS011;11112;51.270;7.224;2023-12-22T07:46:39;15.30;;;2.60;;
21894;SDS011;11112;51.270;7.224;2023-12-22T07:49:06;15.13;;;3.00;;
21894;SDS011;11112;51.270;7.224;2023-12-22T07:51:33;16.20;;;2.72;;
21894;SDS011;11112;51.270;7.224;2023-12-22T07:54:03;18.20;;;3.17;;
21894;SDS011;11112;51.270;7.224;2023-12-22T07:56:31;14.18;;;2.45;;
21894;SDS011;11112;51.270;7.224;2023-12-22T07:58:58;11.75;;;2.67;;
21894;SDS011;11112;51.270;7.224;2023-12-22T08:01:28;18.73;;;2.83;;
21894;SDS011;11112;51.270;7.224;2023-12-22T08:03:56;14.73;;;2.70;;
21894;SDS011;11112;51.270;7.224;2023-12-22T08:06:23;14.57;;;2.95;;
21894;SDS011;11112;51.270;7.224;2023-12-22T08:08:51;15.38;;;2.72;;
21894;SDS011;11112;51.270;7.224;2023-12-22T08:11:19;13.95;;;2.42;;
21894;SDS011;11112;51.270;7.224;2023-12-22T08:13:49;23.10;;;3.05;;
21894;SDS011;11112;51.270;7.224;2023-12-22T08:16:16;14.55;;;2.63;;
21894;SDS011;11112;51.270;7.224;2023-12-22T08:18:43;16.33;;;3.13;;
21894;SDS011;11112;51.270;7.224;2023-12-22T08:21:12;17.55;;;2.75;;
21894;SDS011;11112;51.270;7.224;2023-12-22T08:23:40;15.15;;;2.97;;
21894;SDS011;11112;51.270;7.224;2023-12-22T08:26:07;19.33;;;3.65;;
21894;SDS011;11112;51.270;7.224;2023-12-22T08:28:34;18.02;;;2.80;;
21894;SDS011;11112;51.270;7.224;2023-12-22T08:31:04;16.42;;;3.13;;
21894;SDS011;11112;51.270;7.224;2023-12-22T08:33:31;19.40;;;3.08;;
21894;SDS011;11112;51.270;7.224;2023-12-22T08:35:58;20.55;;;3.38;;
21894;SDS011;11112;51.270;7.224;2023-12-22T08:38:27;19.48;;;3.30;;
21894;SDS011;11112;51.270;7.224;2023-12-22T08:40:54;19.38;;;3.75;;
21894;SDS011;11112;51.270;7.224;2023-12-22T08:43:21;20.33;;;4.03;;
21894;SDS011;11112;51.270;7.224;2023-12-22T08:45:49;20.48;;;4.03;;
21894;SDS011;11112;51.270;7.224;2023-12-22T08:48:17;17.75;;;3.45;;
21894;SDS011;11112;51.270;7.224;2023-12-22T08:50:44;17.92;;;3.35;;
21894;SDS011;11112;51.270;7.224;2023-12-22T08:53:11;21.30;;;3.75;;
21894;SDS011;11112;51.270;7.224;2023-12-22T08:55:39;25.40;;;4.00;;
21894;SDS011;11112;51.270;7.224;2023-12-22T08:58:06;20.88;;;4.00;;
21894;SDS011;11112;51.270;7.224;2023-12-22T09:00:33;22.73;;;3.95;;
21894;SDS011;11112;51.270;7.224;2023-12-22T09:03:00;22.50;;;4.05;;
21894;SDS011;11112;51.270;7.224;2023-12-22T09:05:28;25.75;;;4.57;;
21894;SDS011;11112;51.270;7.224;2023-12-22T09:07:58;21.55;;;4.10;;
21894;SDS011;11112;51.270;7.224;2023-12-22T09:10:25;28.10;;;4.72;;
21894;SDS011;11112;51.270;7.224;2023-12-22T09:12:53;34.53;;;5.70;;
21894;SDS011;11112;51.270;7.224;2023-12-22T09:15:20;26.02;;;5.10;;
21894;SDS011;11112;51.270;7.224;2023-12-22T09:17:48;43.45;;;17.58;;
21894;SDS011;11112;51.270;7.224;2023-12-22T09:20:16;31.27;;;8.13;;
21894;SDS011;11112;51.270;7.224;2023-12-22T09:22:43;31.52;;;6.07;;
21894;SDS011;11112;51.270;7.224;2023-12-22T09:25:10;31.42;;;6.00;;
21894;SDS011;11112;51.270;7.224;2023-12-22T09:27:38;31.90;;;5.70;;
21894;SDS011;11112;51.270;7.224;2023-12-22T09:30:07;30.85;;;4.97;;
21894;SDS011;11112;51.270;7.224;2023-12-22T09:32:35;34.53;;;5.10;;
21894;SDS011;11112;51.270;7.224;2023-12-22T09:35:02;33.53;;;5.32;;
21894;SDS011;11112;51.270;7.224;2023-12-22T09:37:30;30.27;;;5.80;;
21894;SDS011;11112;51.270;7.224;2023-12-22T09:39:57;33.03;;;5.93;;
21894;SDS011;11112;51.270;7.224;2023-12-22T09:42:25;28.90;;;5.65;;
21894;SDS011;11112;51.270;7.224;2023-12-22T09:44:53;32.58;;;5.53;;
21894;SDS011;11112;51.270;7.224;2023-12-22T09:47:25;32.55;;;6.30;;
21894;SDS011;11112;51.270;7.224;2023-12-22T09:49:54;29.08;;;5.80;;
21894;SDS011;11112;51.270;7.224;2023-12-22T09:52:22;30.83;;;5.60;;
21894;SDS011;11112;51.270;7.224;2023-12-22T09:54:50;34.15;;;6.20;;
21894;SDS011;11112;51.270;7.224;2023-12-22T09:57:21;31.60;;;5.78;;
21894;SDS011;11112;51.270;7.224;2023-12-22T09:59:49;27.33;;;5.05;;
21894;SDS011;11112;51.270;7.224;2023-12-22T10:02:18;38.13;;;5.18;;
21894;SDS011;11112;51.270;7.224;2023-12-22T10:04:47;26.98;;;5.38;;
21894;SDS011;11112;51.270;7.224;2023-12-22T10:07:14;23.10;;;4.82;;
21894;SDS011;11112;51.270;7.224;2023-12-22T10:09:43;31.23;;;6.47;;
21894;SDS011;11112;51.270;7.224;2023-12-22T10:12:13;30.83;;;6.32;;
21894;SDS011;11112;51.270;7.224;2023-12-22T10:14:41;31.60;;;6.22;;
21894;SDS011;11112;51.270;7.224;2023-12-22T10:17:09;29.88;;;6.13;;
21894;SDS011;11112;51.270;7.224;2023-12-22T10:19:36;28.38;;;5.60;;
21894;SDS011;11112;51.270;7.224;2023-12-22T10:22:06;28.48;;;5.93;;
21894;SDS011;11112;51.270;7.224;2023-12-22T10:24:37;31.48;;;6.18;;
21894;SDS011;11112;51.270;7.224;2023-12-22T10:27:08;28.52;;;5.47;;
21894;SDS011;11112;51.270;7.224;2023-12-22T10:29:36;24.58;;;4.95;;
21894;SDS011;11112;51.270;7.224;2023-12-22T10:32:07;25.00;;;5.20;;
21894;SDS011;11112;51.270;7.224;2023-12-22T10:34:35;21.80;;;4.35;;
21894;SDS011;11112;51.270;7.224;2023-12-22T10:37:02;21.90;;;4.25;;
21894;SDS011;11112;51.270;7.224;2023-12-22T10:39:32;20.13;;;3.85;;
21894;SDS011;11112;51.270;7.224;2023-12-22T10:41:59;22.10;;;3.90;;
21894;SDS011;11112;51.270;7.224;2023-12-22T10:44:27;21.25;;;3.90;;
21894;SDS011;11112;51.270;7.224;2023-12-22T10:46:55;20.08;;;3.60;;
21894;SDS011;11112;51.270;7.224;2023-12-22T10:49:24;18.77;;;3.60;;
21894;SDS011;11112;51.270;7.224;2023-12-22T10:51:52;17.17;;;3.22;;
21894;SDS011;11112;51.270;7.224;2023-12-22T10:54:19;17.80;;;4.15;;
21894;SDS011;11112;51.270;7.224;2023-12-22T10:56:48;15.38;;;3.03;;
21894;SDS011;11112;51.270;7.224;2023-12-22T10:59:16;14.23;;;3.00;;
21894;SDS011;11112;51.270;7.224;2023-12-22T11:01:45;12.68;;;2.15;;
21894;SDS011;11112;51.270;7.224;2023-12-22T11:04:18;9.48;;;2.10;;
21894;SDS011;11112;51.270;7.224;2023-12-22T11:06:49;9.93;;;2.05;;
21894;SDS011;11112;51.270;7.224;2023-12-22T11:09:19;8.85;;;2.08;;
21894;SDS011;11112;51.270;7.224;2023-12-22T11:11:52;9.88;;;2.00;;
21894;SDS011;11112;51.270;7.224;2023-12-22T11:14:21;6.65;;;1.20;;
21894;SDS011;11112;51.270;7.224;2023-12-22T11:16:49;4.97;;;1.00;;
21894;SDS011;11112;51.270;7.224;2023-12-22T11:19:18;4.13;;;1.15;;
21894;SDS011;11112;51.270;7.224;2023-12-22T11:21:47;5.80;;;1.30;;
21894;SDS011;11112;51.270;7.224;2023-12-22T11:24:16;5.38;;;1.13;;
21894;SDS011;11112;51.270;7.224;2023-12-22T11:26:45;4.70;;;1.30;;
21894;SDS011;11112;51.270;7.224;2023-12-22T11:29:15;5.15;;;1.48;;
21894;SDS011;11112;51.270;7.224;2023-12-22T11:31:45;3.72;;;1.20;;
21894;SDS011;11112;51.270;7.224;2023-12-22T11:34:16;5.78;;;1.55;;
21894;SDS011;11112;51.270;7.224;2023-12-22T11:36:45;4.10;;;1.25;;
21894;SDS011;11112;51.270;7.224;2023-12-22T11:39:13;4.85;;;1.20;;
21894;SDS011;11112;51.270;7.224;2023-12-22T11:41:40;5.35;;;1.75;;
21894;SDS011;11112;51.270;7.224;2023-12-22T11:44:09;5.75;;;1.83;;
21894;SDS011;11112;51.270;7.224;2023-12-22T11:46:38;7.10;;;2.28;;
21894;SDS011;11112;51.270;7.224;2023-12-22T11:49:05;7.78;;;2.50;;
21894;SDS011;11112;51.270;7.224;2023-12-22T11:51:33;9.05;;;2.50;;
21894;SDS011;11112;51.270;7.224;2023-12-22T11:54:00;8.57;;;2.50;;
21894;SDS011;11112;51.270;7.224;2023-12-22T11:56:28;6.78;;;2.50;;
21894;SDS011;11112;51.270;7.224;2023-12-22T11:58:56;9.48;;;2.70;;
21894;SDS011;11112;51.270;7.224;2023-12-22T12:01:25;6.70;;;2.47;;
21894;SDS011;11112;51.270;7.224;2023-12-22T12:03:57;7.05;;;2.28;;
21894;SDS011;11112;51.270;7.224;2023-12-22T12:06:33;7.72;;;2.08;;
21894;SDS011;11112;51.270;7.224;2023-12-22T12:09:03;7.28;;;2.42;;
21894;SDS011;11112;51.270;7.224;2023-12-22T12:14:40;9.43;;;2.28;;
21894;SDS011;11112;51.270;7.224;2023-12-22T12:17:09;8.85;;;2.03;;
21894;SDS011;11112;51.270;7.224;2023-12-22T12:19:38;7.47;;;1.60;;
21894;SDS011;11112;51.270;7.224;2023-12-22T12:22:06;6.28;;;1.60;;
21894;SDS011;11112;51.270;7.224;2023-12-22T12:24:35;7.50;;;2.38;;
21894;SDS011;11112;51.270;7.224;2023-12-22T12:27:03;8.80;;;2.08;;
21894;SDS011;11112;51.270;7.224;2023-12-22T12:29:34;5.68;;;1.70;;
21894;SDS011;11112;51.270;7.224;2023-12-22T12:32:02;5.65;;;1.88;;
21894;SDS011;11112;51.270;7.224;2023-12-22T12:34:30;6.47;;;1.75;;
21894;SDS011;11112;51.270;7.224;2023-12-22T12:36:59;15.00;;;2.40;;
21894;SDS011;11112;51.270;7.224;2023-12-22T12:39:29;7.38;;;1.95;;
21894;SDS011;11112;51.270;7.224;2023-12-22T12:41:59;9.32;;;2.50;;
21894;SDS011;11112;51.270;7.224;2023-12-22T12:44:27;7.20;;;1.98;;
21894;SDS011;11112;51.270;7.224;2023-12-22T12:50:03;8.05;;;2.10;;
21894;SDS011;11112;51.270;7.224;2023-12-22T12:52:44;7.20;;;2.22;;
21894;SDS011;11112;51.270;7.224;2023-12-22T12:55:16;7.63;;;2.13;;
21894;SDS011;11112;51.270;7.224;2023-12-22T12:57:44;7.07;;;2.08;;
21894;SDS011;11112;51.270;7.224;2023-12-22T13:00:11;6.63;;;1.85;;
21894;SDS011;11112;51.270;7.224;2023-12-22T13:02:40;6.93;;;1.70;;
21894;SDS011;11112;51.270;7.224;2023-12-22T13:05:07;5.68;;;1.65;;
21894;SDS011;11112;51.270;7.224;2023-12-22T13:07:37;5.63;;;1.67;;
21894;SDS011;11112;51.270;7.224;2023-12-22T13:10:18;5.88;;;1.33;;
21894;SDS011;11112;51.270;7.224;2023-12-22T13:12:47;5.80;;;2.17;;
21894;SDS011;11112;51.270;7.224;2023-12-22T13:15:15;5.80;;;2.20;;
21894;SDS011;11112;51.270;7.224;2023-12-22T13:17:43;5.10;;;1.80;;
21894;SDS011;11112;51.270;7.224;2023-12-22T13:20:10;5.82;;;1.90;;
21894;SDS011;11112;51.270;7.224;2023-12-22T13:22:39;5.38;;;2.05;;
21894;SDS011;11112;51.270;7.224;2023-12-22T13:25:07;8.75;;;2.20;;
21894;SDS011;11112;51.270;7.224;2023-12-22T13:27:43;5.40;;;1.83;;
21894;SDS011;11112;51.270;7.224;2023-12-22T13:30:12;5.57;;;2.10;;
21894;SDS011;11112;51.270;7.224;2023-12-22T13:32:40;5.63;;;2.00;;
21894;SDS011;11112;51.270;7.224;2023-12-22T13:35:06;7.10;;;2.05;;
21894;SDS011;11112;51.270;7.224;2023-12-22T13:37:41;5.90;;;1.73;;
21894;SDS011;11112;51.270;7.224;2023-12-22T13:40:09;8.98;;;2.20;;
21894;SDS011;11112;51.270;7.224;2023-12-22T13:42:38;7.88;;;1.95;;
21894;SDS011;11112;51.270;7.224;2023-12-22T13:45:09;10.55;;;2.28;;
21894;SDS011;11112;51.270;7.224;2023-12-22T13:47:39;8.18;;;2.28;;
21894;SDS011;11112;51.270;7.224;2023-12-22T13:50:12;6.07;;;2.53;;
21894;SDS011;11112;51.270;7.224;2023-12-22T13:52:42;7.95;;;2.45;;
21894;SDS011;11112;51.270;7.224;2023-12-22T13:55:14;8.32;;;2.47;;
21894;SDS011;11112;51.270;7.224;2023-12-22T13:57:43;11.05;;;2.33;;
21894;SDS011;11112;51.270;7.224;2023-12-22T14:00:26;7.28;;;2.10;;
21894;SDS011;11112;51.270;7.224;2023-12-22T14:02:56;8.15;;;2.30;;
21894;SDS011;11112;51.270;7.224;2023-12-22T14:05:23;10.13;;;2.30;;
21894;SDS011;11112;51.270;7.224;2023-12-22T14:07:53;7.60;;;2.05;;
21894;SDS011;11112;51.270;7.224;2023-12-22T14:10:20;6.05;;;1.95;;
21894;SDS011;11112;51.270;7.224;2023-12-22T14:12:47;5.35;;;1.60;;
21894;SDS011;11112;51.270;7.224;2023-12-22T14:15:14;7.43;;;1.85;;
21894;SDS011;11112;51.270;7.224;2023-12-22T14:17:42;8.68;;;1.65;;
21894;SDS011;11112;51.270;7.224;2023-12-22T14:20:09;5.20;;;1.42;;
21894;SDS011;11112;51.270;7.224;2023-12-22T14:22:36;7.93;;;1.92;;
21894;SDS011;11112;51.270;7.224;2023-12-22T14:25:05;8.27;;;1.85;;
21894;SDS011;11112;51.270;7.224;2023-12-22T14:27:34;8.52;;;2.20;;
21894;SDS011;11112;51.270;7.224;2023-12-22T14:30:01;9.02;;;2.00;;
21894;SDS011;11112;51.270;7.224;2023-12-22T14:32:28;7.05;;;2.00;;
21894;SDS011;11112;51.270;7.224;2023-12-22T14:34:55;6.38;;;1.88;;
21894;SDS011;11112;51.270;7.224;2023-12-22T14:37:22;7.15;;;1.67;;
21894;SDS011;11112;51.270;7.224;2023-12-22T14:39:51;7.50;;;1.95;;
21894;SDS011;11112;51.270;7.224;2023-12-22T14:42:19;8.98;;;1.90;;
21894;SDS011;11112;51.270;7.224;2023-12-22T14:44:47;8.30;;;1.83;;
21894;SDS011;11112;51.270;7.224;2023-12-22T14:47:14;8.50;;;2.35;;
21894;SDS011;11112;51.270;7.224;2023-12-22T14:49:40;6.75;;;2.10;;
21894;SDS011;11112;51.270;7.224;2023-12-22T14:52:07;9.77;;;2.10;;
21894;SDS011;11112;51.270;7.224;2023-12-22T14:54:34;8.43;;;2.00;;
21894;SDS011;11112;51.270;7.224;2023-12-22T14:57:01;8.35;;;2.00;;
21894;SDS011;11112;51.270;7.224;2023-12-22T14:59:30;8.80;;;2.10;;
21894;SDS011;11112;51.270;7.224;2023-12-22T15:01:57;8.40;;;1.95;;
21894;SDS011;11112;51.270;7.224;2023-12-22T15:04:24;6.45;;;1.95;;
21894;SDS011;11112;51.270;7.224;2023-12-22T15:06:51;9.90;;;2.28;;
21894;SDS011;11112;51.270;7.224;2023-12-22T15:09:18;10.23;;;2.20;;
21894;SDS011;11112;51.270;7.224;2023-12-22T15:11:46;6.45;;;1.60;;
21894;SDS011;11112;51.270;7.224;2023-12-22T15:14:13;7.32;;;1.70;;
21894;SDS011;11112;51.270;7.224;2023-12-22T15:16:41;8.13;;;1.55;;
21894;SDS011;11112;51.270;7.224;2023-12-22T15:19:10;6.60;;;1.75;;
21894;SDS011;11112;51.270;7.224;2023-12-22T15:21:37;10.20;;;2.05;;
21894;SDS011;11112;51.270;7.224;2023-12-22T15:24:05;6.90;;;1.73;;
21894;SDS011;11112;51.270;7.224;2023-12-22T15:26:32;7.97;;;1.42;;
21894;SDS011;11112;51.270;7.224;2023-12-22T15:29:00;6.03;;;1.20;;
21894;SDS011;11112;51.270;7.224;2023-12-22T15:31:27;6.88;;;1.58;;
21894;SDS011;11112;51.270;7.224;2023-12-22T15:33:57;4.03;;;1.20;;
21894;SDS011;11112;51.270;7.224;2023-12-22T15:36:24;4.10;;;0.95;;
21894;SDS011;11112;51.270;7.224;2023-12-22T15:38:53;4.88;;;1.10;;
21894;SDS011;11112;51.270;7.224;2023-12-22T15:41:20;3.63;;;1.08;;
21894;SDS011;11112;51.270;7.224;2023-12-22T15:43:47;4.53;;;1.45;;
21894;SDS011;11112;51.270;7.224;2023-12-22T15:46:14;7.13;;;2.45;;
21894;SDS011;11112;51.270;7.224;2023-12-22T15:48:42;9.00;;;2.40;;
21894;SDS011;11112;51.270;7.224;2023-12-22T15:51:11;7.43;;;2.35;;
21894;SDS011;11112;51.270;7.224;2023-12-22T15:53:39;10.63;;;2.40;;
21894;SDS011;11112;51.270;7.224;2023-12-22T15:56:07;13.10;;;2.63;;
21894;SDS011;11112;51.270;7.224;2023-12-22T15:58:37;9.95;;;2.63;;
21894;SDS011;11112;51.270;7.224;2023-12-22T16:01:05;10.05;;;2.70;;
21894;SDS011;11112;51.270;7.224;2023-12-22T16:03:32;7.30;;;2.28;;
21894;SDS011;11112;51.270;7.224;2023-12-22T16:06:02;7.50;;;2.25;;
21894;SDS011;11112;51.270;7.224;2023-12-22T16:08:31;11.15;;;2.47;;
21894;SDS011;11112;51.270;7.224;2023-12-22T16:11:00;9.93;;;2.35;;